sensor_id;sensor_type;location;lat;lon;timestamp;P1;durP1;ratioP1;P2;durP2;ratioP2
70467;SDS011;57934;51.532;7.684;2022-11-15T00:00:36;16.45;;;9.05;;
70467;SDS011;57934;51.532;7.684;2022-11-15T00:03:21;10.73;;;8.48;;
70467;SDS011;57934;51.532;7.684;2022-11-15T00:06:10;13.98;;;8.48;;
70467;SDS011;57934;51.532;7.684;2022-11-15T00:08:57;15.40;;;8.88;;
70467;SDS011;57934;51.532;7.684;2022-11-15T00:11:42;11.90;;;8.52;;
70467;SDS011;57934;51.532;7.684;2022-11-15T00:14:27;16.48;;;8.75;;
70467;SDS011;57934;51.532;7.684;2022-11-15T00:17:11;16.35;;;9.55;;
70467;SDS011;57934;51.532;7.684;2022-11-15T00:19:56;10.63;;;8.02;;
70467;SDS011;57934;51.532;7.684;2022-11-15T00:22:40;12.48;;;8.63;;
70467;SDS011;57934;51.532;7.684;2022-11-15T00:25:25;14.25;;;8.80;;
70467;SDS011;57934;51.532;7.684;2022-11-15T00:28:09;14.20;;;8.48;;
70467;SDS011;57934;51.532;7.684;2022-11-15T00:30:54;11.73;;;8.70;;
70467;SDS011;57934;51.532;7.684;2022-11-15T00:33:44;14.80;;;7.78;;
70467;SDS011;57934;51.532;7.684;2022-11-15T00:36:32;13.30;;;8.43;;
70467;SDS011;57934;51.532;7.684;2022-11-15T00:39:18;11.63;;;8.65;;
70467;SDS011;57934;51.532;7.684;2022-11-15T00:42:03;11.25;;;8.20;;
70467;SDS011;57934;51.532;7.684;2022-11-15T00:47:32;11.35;;;8.85;;
70467;SDS011;57934;51.532;7.684;2022-11-15T00:50:16;12.27;;;8.75;;
70467;SDS011;57934;51.532;7.684;2022-11-15T00:53:01;15.18;;;8.38;;
70467;SDS011;57934;51.532;7.684;2022-11-15T00:55:46;15.98;;;8.13;;
70467;SDS011;57934;51.532;7.684;2022-11-15T00:58:30;13.18;;;7.85;;
70467;SDS011;57934;51.532;7.684;2022-11-15T01:01:15;13.90;;;8.52;;
70467;SDS011;57934;51.532;7.684;2022-11-15T01:03:59;10.82;;;7.68;;
70467;SDS011;57934;51.532;7.684;2022-11-15T01:06:44;9.77;;;7.25;;
70467;SDS011;57934;51.532;7.684;2022-11-15T01:09:28;14.35;;;8.05;;
70467;SDS011;57934;51.532;7.684;2022-11-15T01:12:13;12.20;;;7.65;;
70467;SDS011;57934;51.532;7.684;2022-11-15T01:17:42;11.18;;;8.20;;
70467;SDS011;57934;51.532;7.684;2022-11-15T01:20:27;8.75;;;7.25;;
70467;SDS011;57934;51.532;7.684;2022-11-15T01:23:11;13.23;;;8.07;;
70467;SDS011;57934;51.532;7.684;2022-11-15T01:25:59;10.18;;;7.50;;
70467;SDS011;57934;51.532;7.684;2022-11-15T01:28:45;12.88;;;7.40;;
70467;SDS011;57934;51.532;7.684;2022-11-15T01:31:30;12.43;;;7.50;;
70467;SDS011;57934;51.532;7.684;2022-11-15T01:34:14;12.50;;;7.68;;
70467;SDS011;57934;51.532;7.684;2022-11-15T01:36:59;9.40;;;7.25;;
70467;SDS011;57934;51.532;7.684;2022-11-15T01:39:44;14.50;;;7.90;;
70467;SDS011;57934;51.532;7.684;2022-11-15T01:42:28;8.38;;;6.80;;
70467;SDS011;57934;51.532;7.684;2022-11-15T01:45:13;9.15;;;7.30;;
70467;SDS011;57934;51.532;7.684;2022-11-15T01:47:59;10.00;;;7.28;;
70467;SDS011;57934;51.532;7.684;2022-11-15T01:50:43;10.00;;;7.00;;
70467;SDS011;57934;51.532;7.684;2022-11-15T01:53:29;13.35;;;7.88;;
70467;SDS011;57934;51.532;7.684;2022-11-15T01:56:18;9.57;;;7.18;;
70467;SDS011;57934;51.532;7.684;2022-11-15T01:59:07;10.75;;;7.25;;
70467;SDS011;57934;51.532;7.684;2022-11-15T02:01:53;8.98;;;7.43;;
70467;SDS011;57934;51.532;7.684;2022-11-15T02:04:40;12.00;;;7.40;;
70467;SDS011;57934;51.532;7.684;2022-11-15T02:07:27;12.57;;;7.60;;
70467;SDS011;57934;51.532;7.684;2022-11-15T02:10:14;10.38;;;7.10;;
70467;SDS011;57934;51.532;7.684;2022-11-15T02:13:03;15.18;;;7.40;;
70467;SDS011;57934;51.532;7.684;2022-11-15T02:32:03;11.55;;;7.90;;
70467;SDS011;57934;51.532;7.684;2022-11-15T02:40:59;13.52;;;7.50;;
70467;SDS011;57934;51.532;7.684;2022-11-15T02:44:36;9.23;;;7.50;;
70467;SDS011;57934;51.532;7.684;2022-11-15T02:47:08;9.07;;;7.45;;
70467;SDS011;57934;51.532;7.684;2022-11-15T02:50:00;12.60;;;7.63;;
70467;SDS011;57934;51.532;7.684;2022-11-15T02:52:49;12.05;;;7.93;;
70467;SDS011;57934;51.532;7.684;2022-11-15T02:55:39;10.00;;;7.28;;
70467;SDS011;57934;51.532;7.684;2022-11-15T03:01:35;10.55;;;7.28;;
70467;SDS011;57934;51.532;7.684;2022-11-15T03:07:29;9.48;;;7.57;;
70467;SDS011;57934;51.532;7.684;2022-11-15T03:10:19;12.27;;;8.70;;
70467;SDS011;57934;51.532;7.684;2022-11-15T03:16:20;13.07;;;8.90;;
70467;SDS011;57934;51.532;7.684;2022-11-15T03:22:02;11.30;;;8.27;;
70467;SDS011;57934;51.532;7.684;2022-11-15T03:24:51;11.80;;;8.25;;
70467;SDS011;57934;51.532;7.684;2022-11-15T03:27:39;13.15;;;7.82;;
70467;SDS011;57934;51.532;7.684;2022-11-15T03:30:27;10.50;;;7.95;;
70467;SDS011;57934;51.532;7.684;2022-11-15T03:33:13;10.07;;;7.20;;
70467;SDS011;57934;51.532;7.684;2022-11-15T03:35:57;9.73;;;7.47;;
70467;SDS011;57934;51.532;7.684;2022-11-15T03:38:43;9.00;;;7.05;;
70467;SDS011;57934;51.532;7.684;2022-11-15T03:41:30;10.30;;;7.50;;
70467;SDS011;57934;51.532;7.684;2022-11-15T03:44:38;9.73;;;6.57;;
70467;SDS011;57934;51.532;7.684;2022-11-15T03:47:34;11.98;;;7.25;;
70467;SDS011;57934;51.532;7.684;2022-11-15T03:50:23;9.05;;;6.68;;
70467;SDS011;57934;51.532;7.684;2022-11-15T03:53:08;12.93;;;7.07;;
70467;SDS011;57934;51.532;7.684;2022-11-15T03:55:53;10.68;;;6.10;;
70467;SDS011;57934;51.532;7.684;2022-11-15T03:58:38;11.82;;;6.25;;
70467;SDS011;57934;51.532;7.684;2022-11-15T04:01:22;8.35;;;5.80;;
70467;SDS011;57934;51.532;7.684;2022-11-15T04:04:07;6.95;;;5.68;;
70467;SDS011;57934;51.532;7.684;2022-11-15T04:06:51;9.25;;;6.10;;
70467;SDS011;57934;51.532;7.684;2022-11-15T04:09:36;9.60;;;5.70;;
70467;SDS011;57934;51.532;7.684;2022-11-15T04:12:43;7.20;;;5.80;;
70467;SDS011;57934;51.532;7.684;2022-11-15T04:15:31;7.32;;;6.20;;
70467;SDS011;57934;51.532;7.684;2022-11-15T04:18:16;7.55;;;5.53;;
70467;SDS011;57934;51.532;7.684;2022-11-15T04:21:01;7.72;;;6.30;;
70467;SDS011;57934;51.532;7.684;2022-11-15T04:24:05;9.27;;;6.47;;
70467;SDS011;57934;51.532;7.684;2022-11-15T04:26:59;9.82;;;5.95;;
70467;SDS011;57934;51.532;7.684;2022-11-15T04:32:28;7.78;;;5.00;;
70467;SDS011;57934;51.532;7.684;2022-11-15T04:35:13;6.75;;;5.93;;
70467;SDS011;57934;51.532;7.684;2022-11-15T04:37:57;6.47;;;5.88;;
70467;SDS011;57934;51.532;7.684;2022-11-15T04:40:42;8.68;;;6.15;;
70467;SDS011;57934;51.532;7.684;2022-11-15T04:43:27;8.90;;;5.67;;
70467;SDS011;57934;51.532;7.684;2022-11-15T04:46:12;9.45;;;6.30;;
70467;SDS011;57934;51.532;7.684;2022-11-15T04:48:57;7.32;;;5.90;;
70467;SDS011;57934;51.532;7.684;2022-11-15T04:51:42;9.40;;;5.68;;
70467;SDS011;57934;51.532;7.684;2022-11-15T04:54:27;10.20;;;6.05;;
70467;SDS011;57934;51.532;7.684;2022-11-15T04:57:11;6.93;;;6.00;;
70467;SDS011;57934;51.532;7.684;2022-11-15T04:59:56;6.28;;;5.68;;
70467;SDS011;57934;51.532;7.684;2022-11-15T05:02:40;9.00;;;6.32;;
70467;SDS011;57934;51.532;7.684;2022-11-15T05:05:43;9.23;;;6.43;;
70467;SDS011;57934;51.532;7.684;2022-11-15T05:08:28;8.27;;;6.10;;
70467;SDS011;57934;51.532;7.684;2022-11-15T05:11:12;9.93;;;6.35;;
70467;SDS011;57934;51.532;7.684;2022-11-15T05:13:57;7.25;;;6.50;;
70467;SDS011;57934;51.532;7.684;2022-11-15T05:16:41;9.70;;;6.68;;
70467;SDS011;57934;51.532;7.684;2022-11-15T05:19:26;7.65;;;6.80;;
70467;SDS011;57934;51.532;7.684;2022-11-15T05:22:12;7.13;;;6.43;;
70467;SDS011;57934;51.532;7.684;2022-11-15T05:24:57;8.90;;;6.57;;
70467;SDS011;57934;51.532;7.684;2022-11-15T05:27:41;8.27;;;6.22;;
70467;SDS011;57934;51.532;7.684;2022-11-15T05:30:26;7.05;;;6.35;;
70467;SDS011;57934;51.532;7.684;2022-11-15T05:33:10;7.15;;;6.38;;
70467;SDS011;57934;51.532;7.684;2022-11-15T05:38:45;6.63;;;5.90;;
70467;SDS011;57934;51.532;7.684;2022-11-15T05:41:32;6.95;;;5.80;;
70467;SDS011;57934;51.532;7.684;2022-11-15T05:44:21;6.25;;;5.05;;
70467;SDS011;57934;51.532;7.684;2022-11-15T05:47:08;6.43;;;5.32;;
70467;SDS011;57934;51.532;7.684;2022-11-15T05:49:54;5.75;;;4.80;;
70467;SDS011;57934;51.532;7.684;2022-11-15T05:52:40;6.05;;;5.00;;
70467;SDS011;57934;51.532;7.684;2022-11-15T05:55:25;5.05;;;4.55;;
70467;SDS011;57934;51.532;7.684;2022-11-15T05:58:09;4.97;;;4.47;;
70467;SDS011;57934;51.532;7.684;2022-11-15T06:00:54;5.47;;;4.60;;
70467;SDS011;57934;51.532;7.684;2022-11-15T06:03:39;6.20;;;4.60;;
70467;SDS011;57934;51.532;7.684;2022-11-15T06:06:23;4.90;;;4.40;;
70467;SDS011;57934;51.532;7.684;2022-11-15T06:09:08;4.65;;;4.25;;
70467;SDS011;57934;51.532;7.684;2022-11-15T06:11:54;7.00;;;4.75;;
70467;SDS011;57934;51.532;7.684;2022-11-15T06:14:41;5.80;;;4.60;;
70467;SDS011;57934;51.532;7.684;2022-11-15T06:17:44;4.85;;;4.30;;
70467;SDS011;57934;51.532;7.684;2022-11-15T06:20:47;7.18;;;4.28;;
70467;SDS011;57934;51.532;7.684;2022-11-15T06:23:33;4.40;;;4.00;;
70467;SDS011;57934;51.532;7.684;2022-11-15T06:26:19;5.00;;;4.50;;
70467;SDS011;57934;51.532;7.684;2022-11-15T06:29:03;5.93;;;4.22;;
70467;SDS011;57934;51.532;7.684;2022-11-15T06:31:48;4.70;;;4.18;;
70467;SDS011;57934;51.532;7.684;2022-11-15T06:34:33;4.25;;;3.95;;
70467;SDS011;57934;51.532;7.684;2022-11-15T06:37:20;4.00;;;3.70;;
70467;SDS011;57934;51.532;7.684;2022-11-15T06:40:05;4.55;;;4.15;;
70467;SDS011;57934;51.532;7.684;2022-11-15T06:42:50;7.18;;;4.53;;
70467;SDS011;57934;51.532;7.684;2022-11-15T06:45:42;5.35;;;4.30;;
70467;SDS011;57934;51.532;7.684;2022-11-15T06:48:27;5.93;;;3.85;;
70467;SDS011;57934;51.532;7.684;2022-11-15T06:51:12;4.60;;;3.85;;
70467;SDS011;57934;51.532;7.684;2022-11-15T06:53:57;6.53;;;5.40;;
70467;SDS011;57934;51.532;7.684;2022-11-15T06:56:41;4.65;;;3.80;;
70467;SDS011;57934;51.532;7.684;2022-11-15T06:59:26;3.83;;;3.20;;
70467;SDS011;57934;51.532;7.684;2022-11-15T07:02:13;3.70;;;3.40;;
70467;SDS011;57934;51.532;7.684;2022-11-15T07:04:59;3.47;;;3.13;;
70467;SDS011;57934;51.532;7.684;2022-11-15T07:07:43;3.10;;;2.80;;
70467;SDS011;57934;51.532;7.684;2022-11-15T07:10:34;4.35;;;2.67;;
70467;SDS011;57934;51.532;7.684;2022-11-15T07:16:04;2.60;;;2.17;;
70467;SDS011;57934;51.532;7.684;2022-11-15T07:18:50;2.75;;;2.05;;
70467;SDS011;57934;51.532;7.684;2022-11-15T07:21:35;2.83;;;2.63;;
70467;SDS011;57934;51.532;7.684;2022-11-15T07:24:20;2.40;;;2.20;;
70467;SDS011;57934;51.532;7.684;2022-11-15T07:27:04;2.20;;;2.00;;
70467;SDS011;57934;51.532;7.684;2022-11-15T07:29:49;2.30;;;2.10;;
70467;SDS011;57934;51.532;7.684;2022-11-15T07:32:34;3.15;;;2.00;;
70467;SDS011;57934;51.532;7.684;2022-11-15T07:35:18;1.75;;;1.65;;
70467;SDS011;57934;51.532;7.684;2022-11-15T07:38:03;2.35;;;2.10;;
70467;SDS011;57934;51.532;7.684;2022-11-15T07:40:55;2.20;;;2.10;;
70467;SDS011;57934;51.532;7.684;2022-11-15T07:43:43;2.50;;;1.90;;
70467;SDS011;57934;51.532;7.684;2022-11-15T07:46:28;2.75;;;1.63;;
70467;SDS011;57934;51.532;7.684;2022-11-15T07:49:12;2.63;;;1.60;;
70467;SDS011;57934;51.532;7.684;2022-11-15T07:51:57;3.10;;;1.80;;
70467;SDS011;57934;51.532;7.684;2022-11-15T07:54:41;1.73;;;1.58;;
70467;SDS011;57934;51.532;7.684;2022-11-15T07:57:26;2.20;;;2.00;;
70467;SDS011;57934;51.532;7.684;2022-11-15T08:03:03;3.35;;;1.95;;
70467;SDS011;57934;51.532;7.684;2022-11-15T08:05:52;4.05;;;1.70;;
70467;SDS011;57934;51.532;7.684;2022-11-15T08:08:37;1.83;;;1.73;;
70467;SDS011;57934;51.532;7.684;2022-11-15T08:11:23;2.78;;;1.85;;
70467;SDS011;57934;51.532;7.684;2022-11-15T08:14:13;1.65;;;1.52;;
70467;SDS011;57934;51.532;7.684;2022-11-15T08:16:57;2.00;;;1.83;;
70467;SDS011;57934;51.532;7.684;2022-11-15T08:19:42;1.98;;;1.73;;
70467;SDS011;57934;51.532;7.684;2022-11-15T08:22:28;2.30;;;1.33;;
70467;SDS011;57934;51.532;7.684;2022-11-15T08:25:13;4.93;;;1.60;;
70467;SDS011;57934;51.532;7.684;2022-11-15T08:27:59;2.38;;;1.70;;
70467;SDS011;57934;51.532;7.684;2022-11-15T08:30:45;2.80;;;1.63;;
70467;SDS011;57934;51.532;7.684;2022-11-15T08:33:32;1.58;;;1.20;;
70467;SDS011;57934;51.532;7.684;2022-11-15T08:36:31;2.85;;;1.70;;
70467;SDS011;57934;51.532;7.684;2022-11-15T08:39:16;3.67;;;1.30;;
70467;SDS011;57934;51.532;7.684;2022-11-15T08:42:00;3.28;;;1.27;;
70467;SDS011;57934;51.532;7.684;2022-11-15T08:44:45;1.40;;;1.17;;
70467;SDS011;57934;51.532;7.684;2022-11-15T08:47:29;2.83;;;1.15;;
70467;SDS011;57934;51.532;7.684;2022-11-15T08:50:15;1.88;;;1.42;;
70467;SDS011;57934;51.532;7.684;2022-11-15T08:53:06;2.58;;;1.42;;
70467;SDS011;57934;51.532;7.684;2022-11-15T08:55:52;1.52;;;1.40;;
70467;SDS011;57934;51.532;7.684;2022-11-15T08:58:37;1.48;;;1.15;;
70467;SDS011;57934;51.532;7.684;2022-11-15T09:01:22;1.67;;;1.40;;
70467;SDS011;57934;51.532;7.684;2022-11-15T09:04:07;6.95;;;1.17;;
70467;SDS011;57934;51.532;7.684;2022-11-15T09:06:51;0.98;;;0.95;;
70467;SDS011;57934;51.532;7.684;2022-11-15T09:09:36;2.95;;;0.95;;
70467;SDS011;57934;51.532;7.684;2022-11-15T09:12:21;1.48;;;0.90;;
70467;SDS011;57934;51.532;7.684;2022-11-15T09:15:05;1.85;;;0.98;;
70467;SDS011;57934;51.532;7.684;2022-11-15T09:17:51;1.63;;;0.95;;
70467;SDS011;57934;51.532;7.684;2022-11-15T09:20:35;3.72;;;0.95;;
70467;SDS011;57934;51.532;7.684;2022-11-15T09:23:20;1.30;;;1.10;;
70467;SDS011;57934;51.532;7.684;2022-11-15T09:28:50;1.45;;;1.35;;
70467;SDS011;57934;51.532;7.684;2022-11-15T09:31:35;2.63;;;1.30;;
70467;SDS011;57934;51.532;7.684;2022-11-15T09:34:19;1.42;;;1.27;;
70467;SDS011;57934;51.532;7.684;2022-11-15T09:37:05;5.15;;;1.25;;
70467;SDS011;57934;51.532;7.684;2022-11-15T09:39:49;0.70;;;0.70;;
70467;SDS011;57934;51.532;7.684;2022-11-15T09:45:42;1.40;;;1.27;;
70467;SDS011;57934;51.532;7.684;2022-11-15T09:51:33;1.33;;;0.95;;
70467;SDS011;57934;51.532;7.684;2022-11-15T09:54:09;1.48;;;1.20;;
70467;SDS011;57934;51.532;7.684;2022-11-15T09:59:41;2.33;;;0.98;;
70467;SDS011;57934;51.532;7.684;2022-11-15T10:02:46;1.13;;;0.93;;
70467;SDS011;57934;51.532;7.684;2022-11-15T10:05:37;4.15;;;1.08;;
70467;SDS011;57934;51.532;7.684;2022-11-15T10:08:24;1.75;;;0.95;;
70467;SDS011;57934;51.532;7.684;2022-11-15T10:10:53;2.28;;;0.90;;
70467;SDS011;57934;51.532;7.684;2022-11-15T10:13:23;2.08;;;0.90;;
70467;SDS011;57934;51.532;7.684;2022-11-15T10:15:52;2.65;;;0.93;;
70467;SDS011;57934;51.532;7.684;2022-11-15T10:23:23;1.38;;;1.05;;
70467;SDS011;57934;51.532;7.684;2022-11-15T10:25:57;1.20;;;0.70;;
70467;SDS011;57934;51.532;7.684;2022-11-15T10:28:31;1.58;;;1.02;;
70467;SDS011;57934;51.532;7.684;2022-11-15T10:31:00;2.72;;;0.90;;
70467;SDS011;57934;51.532;7.684;2022-11-15T10:33:46;0.70;;;0.70;;
70467;SDS011;57934;51.532;7.684;2022-11-15T10:41:17;1.20;;;0.85;;
70467;SDS011;57934;51.532;7.684;2022-11-15T10:44:01;1.77;;;0.95;;
70467;SDS011;57934;51.532;7.684;2022-11-15T10:46:37;3.58;;;0.80;;
70467;SDS011;57934;51.532;7.684;2022-11-15T10:49:18;1.65;;;0.95;;
70467;SDS011;57934;51.532;7.684;2022-11-15T10:51:52;3.22;;;1.27;;
70467;SDS011;57934;51.532;7.684;2022-11-15T10:57:13;4.43;;;1.00;;
70467;SDS011;57934;51.532;7.684;2022-11-15T10:59:42;1.63;;;0.93;;
70467;SDS011;57934;51.532;7.684;2022-11-15T11:02:29;1.17;;;0.98;;
70467;SDS011;57934;51.532;7.684;2022-11-15T11:05:04;1.70;;;1.20;;
70467;SDS011;57934;51.532;7.684;2022-11-15T11:07:33;4.15;;;1.02;;
70467;SDS011;57934;51.532;7.684;2022-11-15T11:10:03;2.83;;;0.95;;
70467;SDS011;57934;51.532;7.684;2022-11-15T11:12:43;1.58;;;1.05;;
70467;SDS011;57934;51.532;7.684;2022-11-15T11:15:11;2.05;;;0.80;;
70467;SDS011;57934;51.532;7.684;2022-11-15T11:17:56;1.38;;;0.70;;
70467;SDS011;57934;51.532;7.684;2022-11-15T11:20:54;3.13;;;0.90;;
70467;SDS011;57934;51.532;7.684;2022-11-15T11:32:30;2.40;;;1.13;;
70467;SDS011;57934;51.532;7.684;2022-11-15T11:35:22;2.38;;;0.90;;
70467;SDS011;57934;51.532;7.684;2022-11-15T11:37:59;2.20;;;0.93;;
70467;SDS011;57934;51.532;7.684;2022-11-15T11:40:35;2.30;;;0.70;;
70467;SDS011;57934;51.532;7.684;2022-11-15T11:46:26;1.92;;;1.08;;
70467;SDS011;57934;51.532;7.684;2022-11-15T11:51:42;0.88;;;0.80;;
70467;SDS011;57934;51.532;7.684;2022-11-15T11:54:17;1.40;;;1.02;;
70467;SDS011;57934;51.532;7.684;2022-11-15T11:56:49;0.73;;;0.57;;
70467;SDS011;57934;51.532;7.684;2022-11-15T11:59:21;1.45;;;0.60;;
70467;SDS011;57934;51.532;7.684;2022-11-15T12:01:54;1.63;;;1.13;;
70467;SDS011;57934;51.532;7.684;2022-11-15T12:04:35;2.20;;;0.90;;
70467;SDS011;57934;51.532;7.684;2022-11-15T12:07:15;3.35;;;0.80;;
70467;SDS011;57934;51.532;7.684;2022-11-15T12:09:57;2.35;;;0.95;;
70467;SDS011;57934;51.532;7.684;2022-11-15T12:15:20;2.90;;;0.90;;
70467;SDS011;57934;51.532;7.684;2022-11-15T12:18:26;2.63;;;0.85;;
70467;SDS011;57934;51.532;7.684;2022-11-15T12:24:54;5.15;;;1.08;;
70467;SDS011;57934;51.532;7.684;2022-11-15T12:28:03;3.40;;;1.00;;
70467;SDS011;57934;51.532;7.684;2022-11-15T12:31:01;3.40;;;0.75;;
70467;SDS011;57934;51.532;7.684;2022-11-15T12:33:38;1.33;;;0.68;;
70467;SDS011;57934;51.532;7.684;2022-11-15T12:39:07;1.50;;;0.68;;
70467;SDS011;57934;51.532;7.684;2022-11-15T12:41:38;2.53;;;0.60;;
70467;SDS011;57934;51.532;7.684;2022-11-15T12:44:04;4.15;;;0.75;;
70467;SDS011;57934;51.532;7.684;2022-11-15T13:02:18;1.45;;;0.80;;
70467;SDS011;57934;51.532;7.684;2022-11-15T13:04:48;4.63;;;0.80;;
70467;SDS011;57934;51.532;7.684;2022-11-15T13:10:28;6.38;;;0.80;;
70467;SDS011;57934;51.532;7.684;2022-11-15T13:12:57;0.85;;;0.73;;
70467;SDS011;57934;51.532;7.684;2022-11-15T13:15:38;0.75;;;0.60;;
70467;SDS011;57934;51.532;7.684;2022-11-15T13:18:26;1.58;;;1.00;;
70467;SDS011;57934;51.532;7.684;2022-11-15T13:20:53;2.58;;;1.17;;
70467;SDS011;57934;51.532;7.684;2022-11-15T13:23:20;0.90;;;0.60;;
70467;SDS011;57934;51.532;7.684;2022-11-15T13:28:27;2.60;;;0.60;;
70467;SDS011;57934;51.532;7.684;2022-11-15T13:31:14;4.95;;;0.68;;
70467;SDS011;57934;51.532;7.684;2022-11-15T13:37:00;1.27;;;0.80;;
70467;SDS011;57934;51.532;7.684;2022-11-15T13:41:54;4.05;;;1.10;;
70467;SDS011;57934;51.532;7.684;2022-11-15T13:44:23;2.97;;;0.93;;
70467;SDS011;57934;51.532;7.684;2022-11-15T13:47:28;2.58;;;0.60;;
70467;SDS011;57934;51.532;7.684;2022-11-15T13:50:54;2.67;;;0.73;;
70467;SDS011;57934;51.532;7.684;2022-11-15T13:53:30;4.68;;;1.27;;
70467;SDS011;57934;51.532;7.684;2022-11-15T13:56:02;2.53;;;0.95;;
70467;SDS011;57934;51.532;7.684;2022-11-15T13:58:29;3.33;;;0.88;;
70467;SDS011;57934;51.532;7.684;2022-11-15T14:01:02;3.80;;;1.00;;
70467;SDS011;57934;51.532;7.684;2022-11-15T14:03:31;2.45;;;0.65;;
70467;SDS011;57934;51.532;7.684;2022-11-15T14:08:59;1.13;;;0.80;;
70467;SDS011;57934;51.532;7.684;2022-11-15T14:11:29;2.25;;;0.93;;
70467;SDS011;57934;51.532;7.684;2022-11-15T14:19:02;3.30;;;1.00;;
70467;SDS011;57934;51.532;7.684;2022-11-15T14:21:30;1.92;;;1.13;;
70467;SDS011;57934;51.532;7.684;2022-11-15T14:27:15;3.38;;;1.40;;
70467;SDS011;57934;51.532;7.684;2022-11-15T14:29:42;1.67;;;1.23;;
70467;SDS011;57934;51.532;7.684;2022-11-15T14:32:12;2.72;;;1.60;;
70467;SDS011;57934;51.532;7.684;2022-11-15T14:34:48;2.92;;;1.60;;
70467;SDS011;57934;51.532;7.684;2022-11-15T14:40:12;6.40;;;2.10;;
70467;SDS011;57934;51.532;7.684;2022-11-15T14:42:40;4.82;;;1.60;;
70467;SDS011;57934;51.532;7.684;2022-11-15T14:45:10;3.17;;;1.23;;
70467;SDS011;57934;51.532;7.684;2022-11-15T14:47:41;3.92;;;1.55;;
70467;SDS011;57934;51.532;7.684;2022-11-15T14:50:12;3.00;;;1.27;;
70467;SDS011;57934;51.532;7.684;2022-11-15T14:52:39;1.77;;;1.02;;
70467;SDS011;57934;51.532;7.684;2022-11-15T14:58:02;1.25;;;0.90;;
70467;SDS011;57934;51.532;7.684;2022-11-15T15:00:30;1.90;;;1.05;;
70467;SDS011;57934;51.532;7.684;2022-11-15T15:02:57;2.13;;;1.10;;
70467;SDS011;57934;51.532;7.684;2022-11-15T15:05:25;3.85;;;1.25;;
70467;SDS011;57934;51.532;7.684;2022-11-15T15:07:56;6.38;;;1.48;;
70467;SDS011;57934;51.532;7.684;2022-11-15T15:10:22;1.27;;;1.08;;
70467;SDS011;57934;51.532;7.684;2022-11-15T15:12:50;2.15;;;1.20;;
70467;SDS011;57934;51.532;7.684;2022-11-15T15:15:17;2.38;;;1.50;;
70467;SDS011;57934;51.532;7.684;2022-11-15T15:17:48;2.60;;;1.40;;
70467;SDS011;57934;51.532;7.684;2022-11-15T15:20:14;1.38;;;1.25;;
70467;SDS011;57934;51.532;7.684;2022-11-15T15:22:41;5.18;;;1.48;;
70467;SDS011;57934;51.532;7.684;2022-11-15T15:25:16;3.47;;;1.25;;
70467;SDS011;57934;51.532;7.684;2022-11-15T15:27:49;8.88;;;1.88;;
70467;SDS011;57934;51.532;7.684;2022-11-15T15:30:15;3.95;;;1.30;;
70467;SDS011;57934;51.532;7.684;2022-11-15T15:32:41;1.67;;;1.30;;
70467;SDS011;57934;51.532;7.684;2022-11-15T15:35:10;3.15;;;1.35;;
70467;SDS011;57934;51.532;7.684;2022-11-15T15:37:37;2.33;;;1.20;;
70467;SDS011;57934;51.532;7.684;2022-11-15T15:40:08;2.38;;;1.30;;
70467;SDS011;57934;51.532;7.684;2022-11-15T15:45:04;3.92;;;1.20;;
70467;SDS011;57934;51.532;7.684;2022-11-15T15:47:30;4.70;;;1.60;;
70467;SDS011;57934;51.532;7.684;2022-11-15T15:49:57;4.95;;;1.20;;
70467;SDS011;57934;51.532;7.684;2022-11-15T15:52:23;1.48;;;1.25;;
70467;SDS011;57934;51.532;7.684;2022-11-15T15:54:50;4.85;;;1.50;;
70467;SDS011;57934;51.532;7.684;2022-11-15T15:57:16;1.73;;;1.20;;
70467;SDS011;57934;51.532;7.684;2022-11-15T15:59:42;4.70;;;1.63;;
70467;SDS011;57934;51.532;7.684;2022-11-15T16:02:10;2.72;;;1.60;;
70467;SDS011;57934;51.532;7.684;2022-11-15T16:04:40;4.32;;;1.55;;
70467;SDS011;57934;51.532;7.684;2022-11-15T16:07:07;2.50;;;1.45;;
70467;SDS011;57934;51.532;7.684;2022-11-15T16:09:42;3.72;;;1.52;;
70467;SDS011;57934;51.532;7.684;2022-11-15T16:12:27;2.73;;;1.30;;
70467;SDS011;57934;51.532;7.684;2022-11-15T16:14:54;2.55;;;1.27;;
70467;SDS011;57934;51.532;7.684;2022-11-15T16:17:20;2.47;;;1.40;;
70467;SDS011;57934;51.532;7.684;2022-11-15T16:19:48;2.75;;;1.50;;
70467;SDS011;57934;51.532;7.684;2022-11-15T16:22:14;2.13;;;1.30;;
70467;SDS011;57934;51.532;7.684;2022-11-15T16:24:40;2.55;;;1.33;;
70467;SDS011;57934;51.532;7.684;2022-11-15T16:27:16;4.57;;;1.73;;
70467;SDS011;57934;51.532;7.684;2022-11-15T16:29:44;3.95;;;1.85;;
70467;SDS011;57934;51.532;7.684;2022-11-15T16:32:11;4.78;;;1.48;;
70467;SDS011;57934;51.532;7.684;2022-11-15T16:34:38;3.58;;;1.50;;
70467;SDS011;57934;51.532;7.684;2022-11-15T16:37:05;3.90;;;1.30;;
70467;SDS011;57934;51.532;7.684;2022-11-15T16:39:51;4.45;;;1.20;;
70467;SDS011;57934;51.532;7.684;2022-11-15T16:42:17;3.65;;;1.40;;
70467;SDS011;57934;51.532;7.684;2022-11-15T16:44:43;1.35;;;1.25;;
70467;SDS011;57934;51.532;7.684;2022-11-15T16:47:18;5.28;;;2.08;;
70467;SDS011;57934;51.532;7.684;2022-11-15T16:49:47;2.78;;;1.80;;
70467;SDS011;57934;51.532;7.684;2022-11-15T16:52:13;6.63;;;1.75;;
70467;SDS011;57934;51.532;7.684;2022-11-15T16:54:39;3.13;;;1.45;;
70467;SDS011;57934;51.532;7.684;2022-11-15T16:57:07;1.83;;;1.52;;
70467;SDS011;57934;51.532;7.684;2022-11-15T16:59:34;4.15;;;2.28;;
70467;SDS011;57934;51.532;7.684;2022-11-15T17:02:00;3.50;;;1.70;;
70467;SDS011;57934;51.532;7.684;2022-11-15T17:04:27;3.40;;;2.17;;
70467;SDS011;57934;51.532;7.684;2022-11-15T17:06:57;2.65;;;1.90;;
70467;SDS011;57934;51.532;7.684;2022-11-15T17:09:24;4.40;;;1.63;;
70467;SDS011;57934;51.532;7.684;2022-11-15T17:11:50;3.05;;;1.98;;
70467;SDS011;57934;51.532;7.684;2022-11-15T17:14:16;1.90;;;1.63;;
70467;SDS011;57934;51.532;7.684;2022-11-15T17:16:42;5.18;;;1.92;;
70467;SDS011;57934;51.532;7.684;2022-11-15T17:19:13;2.85;;;2.10;;
70467;SDS011;57934;51.532;7.684;2022-11-15T17:21:40;3.13;;;2.13;;
70467;SDS011;57934;51.532;7.684;2022-11-15T17:24:07;2.95;;;1.45;;
70467;SDS011;57934;51.532;7.684;2022-11-15T17:26:34;3.38;;;1.45;;
70467;SDS011;57934;51.532;7.684;2022-11-15T17:29:00;3.17;;;1.60;;
70467;SDS011;57934;51.532;7.684;2022-11-15T17:31:27;1.48;;;1.38;;
70467;SDS011;57934;51.532;7.684;2022-11-15T17:33:55;2.83;;;1.33;;
70467;SDS011;57934;51.532;7.684;2022-11-15T17:36:21;3.17;;;1.80;;
70467;SDS011;57934;51.532;7.684;2022-11-15T17:38:47;2.50;;;1.60;;
70467;SDS011;57934;51.532;7.684;2022-11-15T17:41:17;4.07;;;1.40;;
70467;SDS011;57934;51.532;7.684;2022-11-15T17:43:45;2.38;;;1.50;;
70467;SDS011;57934;51.532;7.684;2022-11-15T17:46:13;1.60;;;1.17;;
70467;SDS011;57934;51.532;7.684;2022-11-15T17:48:40;2.72;;;1.38;;
70467;SDS011;57934;51.532;7.684;2022-11-15T17:51:09;2.28;;;1.60;;
70467;SDS011;57934;51.532;7.684;2022-11-15T17:53:37;3.20;;;1.80;;
70467;SDS011;57934;51.532;7.684;2022-11-15T17:56:07;2.88;;;2.00;;
70467;SDS011;57934;51.532;7.684;2022-11-15T17:58:35;4.82;;;2.17;;
70467;SDS011;57934;51.532;7.684;2022-11-15T18:01:08;2.88;;;2.10;;
70467;SDS011;57934;51.532;7.684;2022-11-15T18:03:40;4.20;;;1.90;;
70467;SDS011;57934;51.532;7.684;2022-11-15T18:06:07;1.80;;;1.55;;
70467;SDS011;57934;51.532;7.684;2022-11-15T18:08:34;2.33;;;1.95;;
70467;SDS011;57934;51.532;7.684;2022-11-15T18:11:05;3.22;;;1.98;;
70467;SDS011;57934;51.532;7.684;2022-11-15T18:13:34;1.63;;;1.52;;
70467;SDS011;57934;51.532;7.684;2022-11-15T18:16:02;2.28;;;1.77;;
70467;SDS011;57934;51.532;7.684;2022-11-15T18:18:33;2.20;;;1.60;;
70467;SDS011;57934;51.532;7.684;2022-11-15T18:21:08;3.22;;;1.95;;
70467;SDS011;57934;51.532;7.684;2022-11-15T18:23:39;3.00;;;2.00;;
70467;SDS011;57934;51.532;7.684;2022-11-15T18:26:07;1.83;;;1.50;;
70467;SDS011;57934;51.532;7.684;2022-11-15T18:28:39;1.63;;;1.50;;